sensor_id;sensor_type;location;lat;lon;timestamp;pressure;altitude;pressure_sealevel;temperature;humidity
65832;BME280;52593;42.648;23.332;2023-04-26T00:01:56;93628.03;;;7.42;100.00
65832;BME280;52593;42.648;23.332;2023-04-26T00:04:23;93619.53;;;7.32;100.00
65832;BME280;52593;42.648;23.332;2023-04-26T00:06:49;93606.22;;;7.32;100.00
65832;BME280;52593;42.648;23.332;2023-04-26T00:09:14;93607.47;;;7.36;100.00
65832;BME280;52593;42.648;23.332;2023-04-26T00:11:40;93583.66;;;7.28;100.00
65832;BME280;52593;42.648;23.332;2023-04-26T00:14:06;93599.78;;;7.41;100.00
65832;BME280;52593;42.648;23.332;2023-04-26T00:16:31;93593.97;;;7.38;100.00
65832;BME280;52593;42.648;23.332;2023-04-26T00:18:57;93589.59;;;7.30;100.00
65832;BME280;52593;42.648;23.332;2023-04-26T00:21:22;93602.16;;;7.36;100.00
65832;BME280;52593;42.648;23.332;2023-04-26T00:23:47;93596.94;;;7.43;100.00
65832;BME280;52593;42.648;23.332;2023-04-26T00:26:13;93600.47;;;7.50;100.00
65832;BME280;52593;42.648;23.332;2023-04-26T00:28:38;93580.78;;;7.44;100.00
65832;BME280;52593;42.648;23.332;2023-04-26T00:31:04;93569.47;;;7.42;100.00
65832;BME280;52593;42.648;23.332;2023-04-26T00:33:29;93571.13;;;7.43;100.00
65832;BME280;52593;42.648;23.332;2023-04-26T00:35:55;93579.66;;;7.39;100.00
65832;BME280;52593;42.648;23.332;2023-04-26T00:38:20;93576.19;;;7.38;100.00
65832;BME280;52593;42.648;23.332;2023-04-26T00:40:45;93564.94;;;7.21;100.00
65832;BME280;52593;42.648;23.332;2023-04-26T00:43:11;93568.63;;;7.20;100.00
65832;BME280;52593;42.648;23.332;2023-04-26T00:45:36;93572.59;;;7.09;100.00
65832;BME280;52593;42.648;23.332;2023-04-26T00:48:02;93569.94;;;7.09;100.00
65832;BME280;52593;42.648;23.332;2023-04-26T00:50:29;93576.00;;;7.03;100.00
65832;BME280;52593;42.648;23.332;2023-04-26T00:52:56;93570.00;;;7.01;100.00
65832;BME280;52593;42.648;23.332;2023-04-26T00:55:23;93566.19;;;6.89;100.00
65832;BME280;52593;42.648;23.332;2023-04-26T00:57:51;93576.72;;;6.97;100.00
65832;BME280;52593;42.648;23.332;2023-04-26T01:00:17;93575.63;;;6.91;100.00
65832;BME280;52593;42.648;23.332;2023-04-26T01:02:43;93579.41;;;6.82;100.00
65832;BME280;52593;42.648;23.332;2023-04-26T01:05:08;93569.44;;;6.69;100.00
65832;BME280;52593;42.648;23.332;2023-04-26T01:07:35;93578.66;;;6.73;100.00
65832;BME280;52593;42.648;23.332;2023-04-26T01:10:01;93580.78;;;6.63;100.00
65832;BME280;52593;42.648;23.332;2023-04-26T01:12:29;93582.34;;;6.57;100.00
65832;BME280;52593;42.648;23.332;2023-04-26T01:14:55;93594.16;;;6.55;100.00
65832;BME280;52593;42.648;23.332;2023-04-26T01:17:21;93596.63;;;6.56;100.00
65832;BME280;52593;42.648;23.332;2023-04-26T01:19:50;93586.63;;;6.43;100.00
65832;BME280;52593;42.648;23.332;2023-04-26T01:22:16;93573.34;;;6.43;100.00
65832;BME280;52593;42.648;23.332;2023-04-26T01:24:44;93573.72;;;6.40;100.00
65832;BME280;52593;42.648;23.332;2023-04-26T01:27:10;93570.41;;;6.23;100.00
65832;BME280;52593;42.648;23.332;2023-04-26T01:29:36;93565.63;;;6.19;100.00
65832;BME280;52593;42.648;23.332;2023-04-26T01:32:01;93565.91;;;6.24;100.00
65832;BME280;52593;42.648;23.332;2023-04-26T01:34:27;93576.81;;;6.29;100.00
65832;BME280;52593;42.648;23.332;2023-04-26T01:36:52;93578.06;;;6.18;100.00
65832;BME280;52593;42.648;23.332;2023-04-26T01:39:18;93572.94;;;6.02;100.00
65832;BME280;52593;42.648;23.332;2023-04-26T01:41:43;93570.97;;;5.96;100.00
65832;BME280;52593;42.648;23.332;2023-04-26T01:44:08;93560.75;;;5.84;100.00
65832;BME280;52593;42.648;23.332;2023-04-26T01:46:34;93581.09;;;5.92;100.00
65832;BME280;52593;42.648;23.332;2023-04-26T01:48:59;93588.88;;;5.94;100.00
65832;BME280;52593;42.648;23.332;2023-04-26T01:51:25;93575.84;;;6.07;100.00
65832;BME280;52593;42.648;23.332;2023-04-26T01:53:51;93575.22;;;6.20;100.00
65832;BME280;52593;42.648;23.332;2023-04-26T01:56:17;93580.75;;;6.33;100.00
65832;BME280;52593;42.648;23.332;2023-04-26T01:58:43;93570.50;;;6.30;100.00
65832;BME280;52593;42.648;23.332;2023-04-26T02:01:08;93570.84;;;6.27;100.00
65832;BME280;52593;42.648;23.332;2023-04-26T02:03:34;93571.03;;;6.25;100.00
65832;BME280;52593;42.648;23.332;2023-04-26T02:06:00;93562.78;;;6.20;100.00
65832;BME280;52593;42.648;23.332;2023-04-26T02:08:26;93572.75;;;6.18;100.00
65832;BME280;52593;42.648;23.332;2023-04-26T02:10:51;93567.34;;;6.12;100.00
65832;BME280;52593;42.648;23.332;2023-04-26T02:13:16;93559.19;;;6.13;100.00
65832;BME280;52593;42.648;23.332;2023-04-26T02:15:47;93569.72;;;6.06;100.00
65832;BME280;52593;42.648;23.332;2023-04-26T02:18:13;93552.38;;;5.96;100.00
65832;BME280;52593;42.648;23.332;2023-04-26T02:20:43;93558.81;;;6.01;100.00
65832;BME280;52593;42.648;23.332;2023-04-26T02:23:10;93559.94;;;6.07;100.00
65832;BME280;52593;42.648;23.332;2023-04-26T02:25:37;93568.53;;;6.09;100.00
65832;BME280;52593;42.648;23.332;2023-04-26T02:28:03;93571.84;;;6.11;100.00
65832;BME280;52593;42.648;23.332;2023-04-26T02:30:29;93574.97;;;6.15;100.00
65832;BME280;52593;42.648;23.332;2023-04-26T02:32:55;93557.91;;;6.09;100.00
65832;BME280;52593;42.648;23.332;2023-04-26T02:35:21;93567.75;;;6.23;100.00
65832;BME280;52593;42.648;23.332;2023-04-26T02:37:46;93570.75;;;6.20;100.00
65832;BME280;52593;42.648;23.332;2023-04-26T02:40:16;93563.88;;;6.26;100.00
65832;BME280;52593;42.648;23.332;2023-04-26T02:42:41;93564.53;;;6.43;100.00
65832;BME280;52593;42.648;23.332;2023-04-26T02:45:07;93562.06;;;6.41;100.00
65832;BME280;52593;42.648;23.332;2023-04-26T02:47:33;93547.88;;;6.34;100.00
65832;BME280;52593;42.648;23.332;2023-04-26T02:50:01;93550.69;;;6.48;100.00
65832;BME280;52593;42.648;23.332;2023-04-26T02:52:27;93548.69;;;6.50;100.00
65832;BME280;52593;42.648;23.332;2023-04-26T02:54:53;93545.75;;;6.59;100.00
65832;BME280;52593;42.648;23.332;2023-04-26T02:57:18;93542.47;;;6.57;100.00
65832;BME280;52593;42.648;23.332;2023-04-26T02:59:44;93532.03;;;6.56;100.00
65832;BME280;52593;42.648;23.332;2023-04-26T03:02:09;93537.16;;;6.57;100.00
65832;BME280;52593;42.648;23.332;2023-04-26T03:04:35;93557.88;;;6.62;100.00
65832;BME280;52593;42.648;23.332;2023-04-26T03:07:02;93550.88;;;6.61;100.00
65832;BME280;52593;42.648;23.332;2023-04-26T03:09:27;93552.19;;;6.65;100.00
65832;BME280;52593;42.648;23.332;2023-04-26T03:11:52;93548.78;;;6.56;100.00
65832;BME280;52593;42.648;23.332;2023-04-26T03:14:18;93533.38;;;6.52;100.00
65832;BME280;52593;42.648;23.332;2023-04-26T03:16:43;93538.78;;;6.73;100.00
65832;BME280;52593;42.648;23.332;2023-04-26T03:19:09;93528.06;;;6.82;100.00
65832;BME280;52593;42.648;23.332;2023-04-26T03:21:34;93542.72;;;6.92;100.00
65832;BME280;52593;42.648;23.332;2023-04-26T03:24:00;93536.84;;;6.97;100.00
65832;BME280;52593;42.648;23.332;2023-04-26T03:26:25;93543.91;;;6.90;100.00
65832;BME280;52593;42.648;23.332;2023-04-26T03:28:51;93545.84;;;6.81;100.00
65832;BME280;52593;42.648;23.332;2023-04-26T03:31:16;93536.78;;;6.75;100.00
65832;BME280;52593;42.648;23.332;2023-04-26T03:33:42;93539.81;;;6.72;100.00
65832;BME280;52593;42.648;23.332;2023-04-26T03:36:07;93549.22;;;6.75;100.00
65832;BME280;52593;42.648;23.332;2023-04-26T03:38:33;93547.69;;;6.66;100.00
65832;BME280;52593;42.648;23.332;2023-04-26T03:40:58;93551.25;;;6.58;100.00
65832;BME280;52593;42.648;23.332;2023-04-26T03:43:24;93555.47;;;6.67;100.00
65832;BME280;52593;42.648;23.332;2023-04-26T03:45:51;93551.44;;;6.71;100.00
65832;BME280;52593;42.648;23.332;2023-04-26T03:48:16;93547.78;;;6.72;100.00
65832;BME280;52593;42.648;23.332;2023-04-26T03:50:42;93553.72;;;6.74;100.00
65832;BME280;52593;42.648;23.332;2023-04-26T03:53:09;93544.47;;;6.70;100.00
65832;BME280;52593;42.648;23.332;2023-04-26T03:55:35;93544.09;;;6.73;100.00
65832;BME280;52593;42.648;23.332;2023-04-26T03:58:01;93540.06;;;6.77;100.00
65832;BME280;52593;42.648;23.332;2023-04-26T04:00:27;93538.84;;;6.95;100.00
65832;BME280;52593;42.648;23.332;2023-04-26T04:02:53;93547.44;;;7.12;100.00
65832;BME280;52593;42.648;23.332;2023-04-26T04:05:18;93562.44;;;7.20;100.00
65832;BME280;52593;42.648;23.332;2023-04-26T04:07:43;93559.09;;;7.11;100.00
65832;BME280;52593;42.648;23.332;2023-04-26T04:10:09;93567.25;;;7.09;100.00
65832;BME280;52593;42.648;23.332;2023-04-26T04:12:35;93575.81;;;7.05;100.00
65832;BME280;52593;42.648;23.332;2023-04-26T04:15:01;93580.09;;;7.06;100.00
65832;BME280;52593;42.648;23.332;2023-04-26T04:17:26;93580.75;;;7.08;100.00
65832;BME280;52593;42.648;23.332;2023-04-26T04:19:52;93571.03;;;7.00;100.00
65832;BME280;52593;42.648;23.332;2023-04-26T04:22:17;93585.59;;;7.19;100.00
65832;BME280;52593;42.648;23.332;2023-04-26T04:24:42;93573.63;;;7.30;100.00
65832;BME280;52593;42.648;23.332;2023-04-26T04:27:09;93567.19;;;7.39;100.00
65832;BME280;52593;42.648;23.332;2023-04-26T04:29:34;93581.78;;;7.43;100.00
65832;BME280;52593;42.648;23.332;2023-04-26T04:32:00;93590.75;;;7.42;100.00
65832;BME280;52593;42.648;23.332;2023-04-26T04:34:26;93589.34;;;7.61;100.00
65832;BME280;52593;42.648;23.332;2023-04-26T04:36:51;93588.50;;;7.61;99.80
65832;BME280;52593;42.648;23.332;2023-04-26T04:39:17;93585.22;;;7.59;100.00
65832;BME280;52593;42.648;23.332;2023-04-26T04:41:43;93583.31;;;7.53;100.00
65832;BME280;52593;42.648;23.332;2023-04-26T04:44:13;93585.72;;;7.69;100.00
65832;BME280;52593;42.648;23.332;2023-04-26T04:46:40;93587.75;;;7.67;100.00
65832;BME280;52593;42.648;23.332;2023-04-26T04:49:05;93584.19;;;7.60;100.00
65832;BME280;52593;42.648;23.332;2023-04-26T04:51:34;93582.75;;;7.57;100.00
65832;BME280;52593;42.648;23.332;2023-04-26T04:54:14;93583.56;;;7.58;100.00
65832;BME280;52593;42.648;23.332;2023-04-26T04:56:40;93587.63;;;7.75;99.51
65832;BME280;52593;42.648;23.332;2023-04-26T04:59:06;93596.38;;;7.69;99.46
65832;BME280;52593;42.648;23.332;2023-04-26T05:01:33;93604.00;;;7.72;99.44
65832;BME280;52593;42.648;23.332;2023-04-26T05:03:58;93589.25;;;7.76;99.53
65832;BME280;52593;42.648;23.332;2023-04-26T05:06:25;93580.31;;;7.84;99.59
65832;BME280;52593;42.648;23.332;2023-04-26T05:08:52;93597.25;;;7.76;99.27
65832;BME280;52593;42.648;23.332;2023-04-26T05:11:17;93596.25;;;7.77;99.21
65832;BME280;52593;42.648;23.332;2023-04-26T05:13:42;93600.56;;;7.78;98.91
65832;BME280;52593;42.648;23.332;2023-04-26T05:16:08;93606.47;;;7.95;98.90
65832;BME280;52593;42.648;23.332;2023-04-26T05:18:33;93599.75;;;7.99;97.17
65832;BME280;52593;42.648;23.332;2023-04-26T05:20:59;93589.03;;;7.93;97.02
65832;BME280;52593;42.648;23.332;2023-04-26T05:23:24;93598.13;;;8.05;97.16
65832;BME280;52593;42.648;23.332;2023-04-26T05:25:50;93592.81;;;8.05;96.60
65832;BME280;52593;42.648;23.332;2023-04-26T05:28:15;93595.41;;;8.20;96.25
65832;BME280;52593;42.648;23.332;2023-04-26T05:30:40;93598.88;;;8.20;95.47
65832;BME280;52593;42.648;23.332;2023-04-26T05:33:06;93601.81;;;8.26;94.44
65832;BME280;52593;42.648;23.332;2023-04-26T05:35:32;93614.75;;;8.29;94.76
65832;BME280;52593;42.648;23.332;2023-04-26T05:37:57;93607.03;;;8.40;94.36
65832;BME280;52593;42.648;23.332;2023-04-26T05:40:22;93607.38;;;8.52;93.64
65832;BME280;52593;42.648;23.332;2023-04-26T05:42:49;93607.31;;;8.74;93.69
65832;BME280;52593;42.648;23.332;2023-04-26T05:45:15;93603.97;;;9.00;92.32
65832;BME280;52593;42.648;23.332;2023-04-26T05:47:40;93606.63;;;9.00;91.76
65832;BME280;52593;42.648;23.332;2023-04-26T05:50:06;93619.44;;;9.12;90.29
65832;BME280;52593;42.648;23.332;2023-04-26T05:52:32;93624.97;;;9.10;90.12
65832;BME280;52593;42.648;23.332;2023-04-26T05:54:57;93620.47;;;9.17;88.75
65832;BME280;52593;42.648;23.332;2023-04-26T05:57:23;93624.53;;;9.06;88.98
65832;BME280;52593;42.648;23.332;2023-04-26T05:59:48;93603.72;;;9.23;88.13
65832;BME280;52593;42.648;23.332;2023-04-26T06:02:14;93603.31;;;9.26;88.58
65832;BME280;52593;42.648;23.332;2023-04-26T06:04:39;93608.56;;;9.13;90.53
65832;BME280;52593;42.648;23.332;2023-04-26T06:07:05;93604.59;;;9.37;89.35
65832;BME280;52593;42.648;23.332;2023-04-26T06:09:31;93610.78;;;9.51;88.42
65832;BME280;52593;42.648;23.332;2023-04-26T06:11:56;93603.25;;;9.68;85.04
65832;BME280;52593;42.648;23.332;2023-04-26T06:14:22;93614.13;;;9.73;85.86
65832;BME280;52593;42.648;23.332;2023-04-26T06:16:47;93604.88;;;9.62;85.82
65832;BME280;52593;42.648;23.332;2023-04-26T06:19:12;93616.25;;;9.91;84.99
65832;BME280;52593;42.648;23.332;2023-04-26T06:21:38;93598.19;;;10.00;81.42
65832;BME280;52593;42.648;23.332;2023-04-26T06:24:04;93603.50;;;9.93;78.83
65832;BME280;52593;42.648;23.332;2023-04-26T06:26:29;93611.75;;;10.05;80.48
65832;BME280;52593;42.648;23.332;2023-04-26T06:28:55;93611.09;;;9.96;76.07
65832;BME280;52593;42.648;23.332;2023-04-26T06:31:21;93607.81;;;9.88;75.73
65832;BME280;52593;42.648;23.332;2023-04-26T06:33:47;93624.63;;;9.75;76.45
65832;BME280;52593;42.648;23.332;2023-04-26T06:36:12;93617.63;;;9.74;76.47
65832;BME280;52593;42.648;23.332;2023-04-26T06:38:38;93620.44;;;9.52;74.14
65832;BME280;52593;42.648;23.332;2023-04-26T06:41:03;93623.88;;;9.39;72.48
65832;BME280;52593;42.648;23.332;2023-04-26T06:43:29;93623.41;;;9.29;73.28
65832;BME280;52593;42.648;23.332;2023-04-26T06:45:54;93633.81;;;9.17;74.80
65832;BME280;52593;42.648;23.332;2023-04-26T06:48:19;93620.56;;;8.96;76.74
65832;BME280;52593;42.648;23.332;2023-04-26T06:50:45;93626.78;;;9.03;76.16
65832;BME280;52593;42.648;23.332;2023-04-26T06:53:10;93626.00;;;9.09;76.71
65832;BME280;52593;42.648;23.332;2023-04-26T06:55:36;93627.47;;;9.18;76.79
65832;BME280;52593;42.648;23.332;2023-04-26T06:58:01;93624.25;;;9.30;76.82
65832;BME280;52593;42.648;23.332;2023-04-26T07:00:27;93614.59;;;9.28;75.76
65832;BME280;52593;42.648;23.332;2023-04-26T07:02:52;93608.69;;;9.40;76.95
65832;BME280;52593;42.648;23.332;2023-04-26T07:05:18;93624.94;;;9.45;76.30
65832;BME280;52593;42.648;23.332;2023-04-26T07:07:43;93625.34;;;9.42;74.98
65832;BME280;52593;42.648;23.332;2023-04-26T07:10:09;93640.47;;;9.28;75.44
65832;BME280;52593;42.648;23.332;2023-04-26T07:12:34;93639.56;;;9.14;74.84
65832;BME280;52593;42.648;23.332;2023-04-26T07:15:00;93629.28;;;9.11;74.23
65832;BME280;52593;42.648;23.332;2023-04-26T07:17:26;93623.78;;;9.19;73.43
65832;BME280;52593;42.648;23.332;2023-04-26T07:19:51;93637.66;;;9.43;72.29
65832;BME280;52593;42.648;23.332;2023-04-26T07:22:17;93622.50;;;9.50;71.94
65832;BME280;52593;42.648;23.332;2023-04-26T07:24:42;93612.69;;;9.71;73.14
65832;BME280;52593;42.648;23.332;2023-04-26T07:27:08;93625.72;;;10.00;68.61
65832;BME280;52593;42.648;23.332;2023-04-26T07:29:34;93626.53;;;9.94;67.33
65832;BME280;52593;42.648;23.332;2023-04-26T07:31:59;93627.38;;;10.02;65.10
65832;BME280;52593;42.648;23.332;2023-04-26T07:34:25;93629.97;;;9.75;64.71
65832;BME280;52593;42.648;23.332;2023-04-26T07:36:50;93633.03;;;9.72;65.29
65832;BME280;52593;42.648;23.332;2023-04-26T07:39:15;93633.44;;;9.69;66.23
65832;BME280;52593;42.648;23.332;2023-04-26T07:41:41;93639.00;;;9.74;65.31
65832;BME280;52593;42.648;23.332;2023-04-26T07:44:06;93620.09;;;9.69;65.81
65832;BME280;52593;42.648;23.332;2023-04-26T07:46:35;93649.28;;;9.77;65.87
65832;BME280;52593;42.648;23.332;2023-04-26T07:49:00;93651.53;;;9.80;64.88
65832;BME280;52593;42.648;23.332;2023-04-26T07:51:26;93641.06;;;9.72;65.42
65832;BME280;52593;42.648;23.332;2023-04-26T07:53:51;93643.31;;;9.68;64.85
65832;BME280;52593;42.648;23.332;2023-04-26T07:56:17;93645.81;;;9.83;64.74
65832;BME280;52593;42.648;23.332;2023-04-26T07:58:42;93631.63;;;9.82;64.20
65832;BME280;52593;42.648;23.332;2023-04-26T08:01:08;93642.91;;;9.71;63.34
65832;BME280;52593;42.648;23.332;2023-04-26T08:03:35;93656.66;;;9.68;64.42
65832;BME280;52593;42.648;23.332;2023-04-26T08:06:01;93653.25;;;9.94;65.03
65832;BME280;52593;42.648;23.332;2023-04-26T08:08:27;93646.59;;;9.70;64.49
65832;BME280;52593;42.648;23.332;2023-04-26T08:10:53;93653.19;;;9.74;64.05
65832;BME280;52593;42.648;23.332;2023-04-26T08:13:20;93654.59;;;9.70;63.78
65832;BME280;52593;42.648;23.332;2023-04-26T08:15:46;93668.38;;;9.74;64.71
65832;BME280;52593;42.648;23.332;2023-04-26T08:18:11;93649.72;;;9.87;63.91
65832;BME280;52593;42.648;23.332;2023-04-26T08:20:37;93665.22;;;10.12;64.66
65832;BME280;52593;42.648;23.332;2023-04-26T08:23:03;93653.84;;;9.90;63.82
65832;BME280;52593;42.648;23.332;2023-04-26T08:25:29;93642.13;;;9.84;64.53
65832;BME280;52593;42.648;23.332;2023-04-26T08:27:54;93647.06;;;9.87;63.58
65832;BME280;52593;42.648;23.332;2023-04-26T08:30:20;93652.59;;;9.79;65.01
65832;BME280;52593;42.648;23.332;2023-04-26T08:32:45;93647.06;;;9.87;64.86
65832;BME280;52593;42.648;23.332;2023-04-26T08:35:11;93661.31;;;10.14;63.50
65832;BME280;52593;42.648;23.332;2023-04-26T08:37:37;93642.97;;;9.98;62.73
65832;BME280;52593;42.648;23.332;2023-04-26T08:40:04;93650.63;;;10.21;63.33
65832;BME280;52593;42.648;23.332;2023-04-26T08:42:33;93639.94;;;10.14;64.31
65832;BME280;52593;42.648;23.332;2023-04-26T08:45:03;93651.47;;;10.22;64.89
65832;BME280;52593;42.648;23.332;2023-04-26T08:47:39;93661.72;;;10.18;62.75
65832;BME280;52593;42.648;23.332;2023-04-26T08:50:06;93655.31;;;9.99;63.63
65832;BME280;52593;42.648;23.332;2023-04-26T08:52:34;93654.09;;;10.08;62.92
65832;BME280;52593;42.648;23.332;2023-04-26T08:54:59;93664.84;;;10.22;63.15
65832;BME280;52593;42.648;23.332;2023-04-26T08:57:25;93652.34;;;10.35;62.91
65832;BME280;52593;42.648;23.332;2023-04-26T08:59:51;93649.19;;;10.18;61.56
65832;BME280;52593;42.648;23.332;2023-04-26T09:02:19;93656.38;;;10.18;61.56
65832;BME280;52593;42.648;23.332;2023-04-26T09:04:45;93652.72;;;10.32;62.48
65832;BME280;52593;42.648;23.332;2023-04-26T09:07:17;93666.75;;;10.48;61.35
65832;BME280;52593;42.648;23.332;2023-04-26T09:09:47;93674.59;;;10.63;61.57
65832;BME280;52593;42.648;23.332;2023-04-26T09:12:13;93679.91;;;10.69;60.67
65832;BME280;52593;42.648;23.332;2023-04-26T09:14:38;93663.84;;;10.56;60.41
65832;BME280;52593;42.648;23.332;2023-04-26T09:17:04;93662.63;;;10.39;60.76
65832;BME280;52593;42.648;23.332;2023-04-26T09:19:40;93669.81;;;10.71;60.20
65832;BME280;52593;42.648;23.332;2023-04-26T09:22:09;93664.47;;;10.92;60.23
65832;BME280;52593;42.648;23.332;2023-04-26T09:24:50;93669.63;;;11.00;60.84
65832;BME280;52593;42.648;23.332;2023-04-26T09:27:18;93664.47;;;10.71;59.64
65832;BME280;52593;42.648;23.332;2023-04-26T09:37:59;93665.28;;;11.05;57.75
65832;BME280;52593;42.648;23.332;2023-04-26T09:40:30;93673.72;;;11.16;57.76
65832;BME280;52593;42.648;23.332;2023-04-26T09:43:06;93660.13;;;11.24;58.84
65832;BME280;52593;42.648;23.332;2023-04-26T09:45:39;93660.06;;;11.37;57.83
65832;BME280;52593;42.648;23.332;2023-04-26T09:48:25;93655.94;;;11.41;56.79
65832;BME280;52593;42.648;23.332;2023-04-26T09:50:54;93648.84;;;11.60;55.86
65832;BME280;52593;42.648;23.332;2023-04-26T09:53:37;93648.13;;;11.92;55.84
65832;BME280;52593;42.648;23.332;2023-04-26T09:56:14;93657.09;;;11.59;55.45
65832;BME280;52593;42.648;23.332;2023-04-26T09:58:57;93645.44;;;11.92;54.61
65832;BME280;52593;42.648;23.332;2023-04-26T10:01:23;93641.75;;;11.93;55.24
65832;BME280;52593;42.648;23.332;2023-04-26T10:03:49;93654.78;;;11.76;55.61
65832;BME280;52593;42.648;23.332;2023-04-26T10:06:16;93650.47;;;11.75;55.45
65832;BME280;52593;42.648;23.332;2023-04-26T10:08:42;93642.38;;;11.82;54.51
65832;BME280;52593;42.648;23.332;2023-04-26T10:11:08;93639.00;;;12.38;53.52
65832;BME280;52593;42.648;23.332;2023-04-26T10:13:39;93636.41;;;12.82;51.58
65832;BME280;52593;42.648;23.332;2023-04-26T10:16:06;93632.00;;;12.88;50.48
65832;BME280;52593;42.648;23.332;2023-04-26T10:18:31;93637.16;;;12.64;51.69
65832;BME280;52593;42.648;23.332;2023-04-26T10:21:07;93639.50;;;12.22;52.31
65832;BME280;52593;42.648;23.332;2023-04-26T10:23:35;93651.00;;;12.04;51.58
65832;BME280;52593;42.648;23.332;2023-04-26T10:26:01;93639.69;;;11.95;52.35
65832;BME280;52593;42.648;23.332;2023-04-26T10:31:05;93624.28;;;12.16;51.85
65832;BME280;52593;42.648;23.332;2023-04-26T10:33:34;93634.34;;;12.27;51.78
65832;BME280;52593;42.648;23.332;2023-04-26T10:38:28;93622.47;;;12.09;52.18
65832;BME280;52593;42.648;23.332;2023-04-26T10:40:54;93623.34;;;12.35;50.81
65832;BME280;52593;42.648;23.332;2023-04-26T10:43:28;93626.75;;;12.17;50.72
65832;BME280;52593;42.648;23.332;2023-04-26T10:45:54;93621.09;;;12.00;50.63
65832;BME280;52593;42.648;23.332;2023-04-26T10:48:30;93629.66;;;12.16;50.77
65832;BME280;52593;42.648;23.332;2023-04-26T10:53:29;93642.53;;;12.00;49.39
65832;BME280;52593;42.648;23.332;2023-04-26T10:55:54;93633.59;;;12.13;49.13
65832;BME280;52593;42.648;23.332;2023-04-26T10:58:28;93640.56;;;12.21;48.62
65832;BME280;52593;42.648;23.332;2023-04-26T11:01:07;93620.00;;;12.40;49.37
65832;BME280;52593;42.648;23.332;2023-04-26T11:03:36;93630.31;;;12.43;48.79
65832;BME280;52593;42.648;23.332;2023-04-26T11:06:09;93637.31;;;12.44;48.54
65832;BME280;52593;42.648;23.332;2023-04-26T11:08:38;93628.13;;;12.26;47.28
65832;BME280;52593;42.648;23.332;2023-04-26T11:11:11;93627.69;;;12.36;47.37
65832;BME280;52593;42.648;23.332;2023-04-26T11:13:39;93622.16;;;12.56;47.01
65832;BME280;52593;42.648;23.332;2023-04-26T11:16:15;93628.56;;;12.30;46.84
65832;BME280;52593;42.648;23.332;2023-04-26T11:18:45;93627.97;;;12.21;47.80
65832;BME280;52593;42.648;23.332;2023-04-26T11:21:12;93614.69;;;12.01;47.64
65832;BME280;52593;42.648;23.332;2023-04-26T11:23:41;93635.22;;;12.21;49.26
65832;BME280;52593;42.648;23.332;2023-04-26T11:26:07;93630.06;;;12.51;48.69
65832;BME280;52593;42.648;23.332;2023-04-26T11:28:37;93630.00;;;12.26;47.61
65832;BME280;52593;42.648;23.332;2023-04-26T11:31:04;93631.25;;;12.55;46.41
65832;BME280;52593;42.648;23.332;2023-04-26T11:33:30;93622.44;;;12.73;45.82
65832;BME280;52593;42.648;23.332;2023-04-26T11:35:58;93626.72;;;12.81;46.49
65832;BME280;52593;42.648;23.332;2023-04-26T11:38:25;93629.13;;;12.64;46.68
65832;BME280;52593;42.648;23.332;2023-04-26T11:40:54;93637.38;;;12.62;47.15
65832;BME280;52593;42.648;23.332;2023-04-26T11:43:20;93624.34;;;12.41;45.90
65832;BME280;52593;42.648;23.332;2023-04-26T11:45:46;93633.50;;;12.26;46.38
65832;BME280;52593;42.648;23.332;2023-04-26T11:48:11;93636.81;;;12.28;45.95
65832;BME280;52593;42.648;23.332;2023-04-26T11:50:38;93625.69;;;12.25;45.77
65832;BME280;52593;42.648;23.332;2023-04-26T11:53:05;93632.56;;;12.46;46.44
65832;BME280;52593;42.648;23.332;2023-04-26T11:55:32;93648.34;;;12.61;47.17
65832;BME280;52593;42.648;23.332;2023-04-26T11:58:08;93631.47;;;12.79;47.04
65832;BME280;52593;42.648;23.332;2023-04-26T12:00:34;93624.09;;;12.74;44.84
65832;BME280;52593;42.648;23.332;2023-04-26T12:03:06;93635.38;;;12.58;45.83
65832;BME280;52593;42.648;23.332;2023-04-26T12:05:35;93628.41;;;12.50;44.96
65832;BME280;52593;42.648;23.332;2023-04-26T12:08:01;93623.69;;;12.45;45.18
65832;BME280;52593;42.648;23.332;2023-04-26T12:10:30;93619.41;;;12.63;46.25
65832;BME280;52593;42.648;23.332;2023-04-26T12:12:57;93623.50;;;13.16;46.14
65832;BME280;52593;42.648;23.332;2023-04-26T12:15:27;93633.13;;;13.24;45.59
65832;BME280;52593;42.648;23.332;2023-04-26T12:17:53;93624.19;;;13.30;45.36
65832;BME280;52593;42.648;23.332;2023-04-26T12:20:28;93621.00;;;12.96;45.67
65832;BME280;52593;42.648;23.332;2023-04-26T12:23:05;93622.06;;;12.70;46.04
65832;BME280;52593;42.648;23.332;2023-04-26T12:25:34;93628.91;;;12.65;45.91
65832;BME280;52593;42.648;23.332;2023-04-26T12:28:02;93616.78;;;12.56;45.93
65832;BME280;52593;42.648;23.332;2023-04-26T12:30:28;93622.00;;;12.76;46.06
65832;BME280;52593;42.648;23.332;2023-04-26T12:32:54;93619.75;;;12.73;45.97
65832;BME280;52593;42.648;23.332;2023-04-26T12:35:21;93618.75;;;12.67;45.20
65832;BME280;52593;42.648;23.332;2023-04-26T12:37:46;93616.97;;;12.29;45.42
65832;BME280;52593;42.648;23.332;2023-04-26T12:40:13;93601.72;;;12.30;46.17
65832;BME280;52593;42.648;23.332;2023-04-26T12:42:40;93606.53;;;12.21;45.88
65832;BME280;52593;42.648;23.332;2023-04-26T12:45:06;93616.25;;;12.16;45.68
65832;BME280;52593;42.648;23.332;2023-04-26T12:47:32;93613.84;;;12.07;45.70
65832;BME280;52593;42.648;23.332;2023-04-26T12:49:57;93608.56;;;12.26;46.48
65832;BME280;52593;42.648;23.332;2023-04-26T12:52:25;93612.25;;;12.57;47.35
65832;BME280;52593;42.648;23.332;2023-04-26T12:54:50;93620.50;;;12.55;47.21
65832;BME280;52593;42.648;23.332;2023-04-26T12:57:16;93610.88;;;12.47;47.09
65832;BME280;52593;42.648;23.332;2023-04-26T12:59:42;93613.63;;;12.41;47.30
65832;BME280;52593;42.648;23.332;2023-04-26T13:02:07;93608.59;;;12.51;47.21
65832;BME280;52593;42.648;23.332;2023-04-26T13:04:34;93620.59;;;12.42;47.01
65832;BME280;52593;42.648;23.332;2023-04-26T13:06:59;93627.41;;;12.44;45.53